sensor_id;sensor_type;location;lat;lon;timestamp;temperature;humidity
69634;DHT22;56860;51.144;16.954;2024-03-06T00:00:56;unavailable;unavailable
69634;DHT22;56860;51.144;16.954;2024-03-06T00:01:56;6.2;38.9
69634;DHT22;56860;51.144;16.954;2024-03-06T00:02:56;6.2;38.9
69634;DHT22;56860;51.144;16.954;2024-03-06T00:03:56;6.2;39.0
69634;DHT22;56860;51.144;16.954;2024-03-06T00:04:57;6.2;39.0
69634;DHT22;56860;51.144;16.954;2024-03-06T00:05:56;6.2;38.8
69634;DHT22;56860;51.144;16.954;2024-03-06T00:06:56;6.2;38.9
69634;DHT22;56860;51.144;16.954;2024-03-06T00:07:56;6.2;38.2
69634;DHT22;56860;51.144;16.954;2024-03-06T00:08:56;6.2;39.0
69634;DHT22;56860;51.144;16.954;2024-03-06T00:09:56;6.2;39.1
69634;DHT22;56860;51.144;16.954;2024-03-06T00:10:57;6.2;39.4
69634;DHT22;56860;51.144;16.954;2024-03-06T00:11:57;6.2;39.3
69634;DHT22;56860;51.144;16.954;2024-03-06T00:12:56;6.2;39.1
69634;DHT22;56860;51.144;16.954;2024-03-06T00:13:56;unavailable;unavailable
69634;DHT22;56860;51.144;16.954;2024-03-06T00:14:56;6.2;38.8
69634;DHT22;56860;51.144;16.954;2024-03-06T00:15:56;6.1;38.7
69634;DHT22;56860;51.144;16.954;2024-03-06T00:16:57;6.1;38.9
69634;DHT22;56860;51.144;16.954;2024-03-06T00:17:56;6.0;39.0
69634;DHT22;56860;51.144;16.954;2024-03-06T00:18:56;6.0;39.3
69634;DHT22;56860;51.144;16.954;2024-03-06T00:19:58;6.0;39.4
69634;DHT22;56860;51.144;16.954;2024-03-06T00:20:56;5.9;39.4
69634;DHT22;56860;51.144;16.954;2024-03-06T00:21:56;5.9;39.1
69634;DHT22;56860;51.144;16.954;2024-03-06T00:22:57;5.9;39.7
69634;DHT22;56860;51.144;16.954;2024-03-06T00:23:56;5.9;39.7
69634;DHT22;56860;51.144;16.954;2024-03-06T00:24:56;5.9;39.8
69634;DHT22;56860;51.144;16.954;2024-03-06T00:25:56;5.9;39.8
69634;DHT22;56860;51.144;16.954;2024-03-06T00:26:56;unavailable;unavailable
69634;DHT22;56860;51.144;16.954;2024-03-06T00:27:56;6.0;40.0
69634;DHT22;56860;51.144;16.954;2024-03-06T00:28:57;6.0;40.0
69634;DHT22;56860;51.144;16.954;2024-03-06T00:29:56;6.0;39.9
69634;DHT22;56860;51.144;16.954;2024-03-06T00:30:56;6.0;39.8
69634;DHT22;56860;51.144;16.954;2024-03-06T00:31:56;6.0;39.7
69634;DHT22;56860;51.144;16.954;2024-03-06T00:32:56;6.0;39.7
69634;DHT22;56860;51.144;16.954;2024-03-06T00:33:56;6.0;39.0
69634;DHT22;56860;51.144;16.954;2024-03-06T00:34:57;5.9;39.5
69634;DHT22;56860;51.144;16.954;2024-03-06T00:35:57;5.9;39.7
69634;DHT22;56860;51.144;16.954;2024-03-06T00:36:56;5.8;39.8
69634;DHT22;56860;51.144;16.954;2024-03-06T00:37:56;5.8;40.3
69634;DHT22;56860;51.144;16.954;2024-03-06T00:38:57;5.8;40.3
69634;DHT22;56860;51.144;16.954;2024-03-06T00:39:56;unavailable;unavailable
69634;DHT22;56860;51.144;16.954;2024-03-06T00:40:59;5.7;40.7
69634;DHT22;56860;51.144;16.954;2024-03-06T00:41:56;5.8;40.9
69634;DHT22;56860;51.144;16.954;2024-03-06T00:42:56;5.8;40.9
69634;DHT22;56860;51.144;16.954;2024-03-06T00:43:56;5.8;40.7
69634;DHT22;56860;51.144;16.954;2024-03-06T00:44:56;5.8;40.8
69634;DHT22;56860;51.144;16.954;2024-03-06T00:45:56;5.8;40.7
69634;DHT22;56860;51.144;16.954;2024-03-06T00:46:57;5.8;40.3
69634;DHT22;56860;51.144;16.954;2024-03-06T00:47:57;5.8;40.0
69634;DHT22;56860;51.144;16.954;2024-03-06T00:48:56;5.8;40.6
69634;DHT22;56860;51.144;16.954;2024-03-06T00:49:56;5.8;40.5
69634;DHT22;56860;51.144;16.954;2024-03-06T00:50:56;5.8;40.4
69634;DHT22;56860;51.144;16.954;2024-03-06T00:51:57;5.8;40.6
69634;DHT22;56860;51.144;16.954;2024-03-06T00:52:57;unavailable;unavailable
69634;DHT22;56860;51.144;16.954;2024-03-06T00:53:56;5.7;40.9
69634;DHT22;56860;51.144;16.954;2024-03-06T00:54:57;5.7;40.9
69634;DHT22;56860;51.144;16.954;2024-03-06T00:55:56;5.7;41.0
69634;DHT22;56860;51.144;16.954;2024-03-06T00:56:56;5.7;41.0
69634;DHT22;56860;51.144;16.954;2024-03-06T00:57:57;5.7;40.9
69634;DHT22;56860;51.144;16.954;2024-03-06T00:58:57;5.7;40.9
69634;DHT22;56860;51.144;16.954;2024-03-06T00:59:56;5.7;40.7
69634;DHT22;56860;51.144;16.954;2024-03-06T01:00:56;5.7;40.9
69634;DHT22;56860;51.144;16.954;2024-03-06T01:01:56;5.8;41.0
69634;DHT22;56860;51.144;16.954;2024-03-06T01:02:56;5.7;41.0
69634;DHT22;56860;51.144;16.954;2024-03-06T01:03:56;5.7;41.0
69634;DHT22;56860;51.144;16.954;2024-03-06T01:04:57;5.8;40.8
69634;DHT22;56860;51.144;16.954;2024-03-06T01:05:56;unavailable;unavailable
69634;DHT22;56860;51.144;16.954;2024-03-06T01:06:57;5.8;40.9
69634;DHT22;56860;51.144;16.954;2024-03-06T01:07:56;5.8;41.0
69634;DHT22;56860;51.144;16.954;2024-03-06T01:08:57;5.8;41.0
69634;DHT22;56860;51.144;16.954;2024-03-06T01:09:56;5.8;41.0
69634;DHT22;56860;51.144;16.954;2024-03-06T01:10:57;5.8;41.0
69634;DHT22;56860;51.144;16.954;2024-03-06T01:11:56;5.7;41.0
69634;DHT22;56860;51.144;16.954;2024-03-06T01:12:57;5.7;41.0
69634;DHT22;56860;51.144;16.954;2024-03-06T01:13:57;5.7;40.5
69634;DHT22;56860;51.144;16.954;2024-03-06T01:14:57;5.7;40.9
69634;DHT22;56860;51.144;16.954;2024-03-06T01:15:57;5.7;40.9
69634;DHT22;56860;51.144;16.954;2024-03-06T01:16:57;5.6;41.0
69634;DHT22;56860;51.144;16.954;2024-03-06T01:17:56;5.7;41.2
69634;DHT22;56860;51.144;16.954;2024-03-06T01:18:57;unavailable;unavailable
69634;DHT22;56860;51.144;16.954;2024-03-06T01:19:57;5.7;41.0
69634;DHT22;56860;51.144;16.954;2024-03-06T01:20:57;5.7;41.0
69634;DHT22;56860;51.144;16.954;2024-03-06T01:21:56;5.7;41.0
69634;DHT22;56860;51.144;16.954;2024-03-06T01:22:57;5.7;41.0
69634;DHT22;56860;51.144;16.954;2024-03-06T01:23:57;5.6;41.0
69634;DHT22;56860;51.144;16.954;2024-03-06T01:24:57;5.5;41.2
69634;DHT22;56860;51.144;16.954;2024-03-06T01:25:57;5.6;41.2
69634;DHT22;56860;51.144;16.954;2024-03-06T01:26:57;5.5;41.5
69634;DHT22;56860;51.144;16.954;2024-03-06T01:27:57;5.5;41.5
69634;DHT22;56860;51.144;16.954;2024-03-06T01:28:57;5.5;41.5
69634;DHT22;56860;51.144;16.954;2024-03-06T01:29:57;5.6;41.6
69634;DHT22;56860;51.144;16.954;2024-03-06T01:30:57;5.7;41.4
69634;DHT22;56860;51.144;16.954;2024-03-06T01:31:57;unavailable;unavailable
69634;DHT22;56860;51.144;16.954;2024-03-06T01:32:57;5.7;41.1
69634;DHT22;56860;51.144;16.954;2024-03-06T01:33:57;5.7;41.4
69634;DHT22;56860;51.144;16.954;2024-03-06T01:34:57;5.7;41.3
69634;DHT22;56860;51.144;16.954;2024-03-06T01:35:57;5.7;41.0
69634;DHT22;56860;51.144;16.954;2024-03-06T01:36:57;5.7;41.0
69634;DHT22;56860;51.144;16.954;2024-03-06T01:37:57;5.7;41.0
69634;DHT22;56860;51.144;16.954;2024-03-06T01:38:57;5.7;41.2
69634;DHT22;56860;51.144;16.954;2024-03-06T01:39:57;5.7;41.2
69634;DHT22;56860;51.144;16.954;2024-03-06T01:40:57;5.7;41.2
69634;DHT22;56860;51.144;16.954;2024-03-06T01:41:57;5.7;41.4
69634;DHT22;56860;51.144;16.954;2024-03-06T01:42:57;5.7;41.3
69634;DHT22;56860;51.144;16.954;2024-03-06T01:43:57;5.6;41.4
69634;DHT22;56860;51.144;16.954;2024-03-06T01:44:57;unavailable;unavailable
69634;DHT22;56860;51.144;16.954;2024-03-06T01:45:57;5.5;41.4
69634;DHT22;56860;51.144;16.954;2024-03-06T01:46:57;5.5;41.4
69634;DHT22;56860;51.144;16.954;2024-03-06T01:47:57;5.4;41.6
69634;DHT22;56860;51.144;16.954;2024-03-06T01:48:57;5.4;41.8
69634;DHT22;56860;51.144;16.954;2024-03-06T01:49:57;5.3;42.1
69634;DHT22;56860;51.144;16.954;2024-03-06T01:50:57;5.2;42.2
69634;DHT22;56860;51.144;16.954;2024-03-06T01:51:57;5.2;42.5
69634;DHT22;56860;51.144;16.954;2024-03-06T01:52:57;5.2;42.7
69634;DHT22;56860;51.144;16.954;2024-03-06T01:53:57;5.2;42.8
69634;DHT22;56860;51.144;16.954;2024-03-06T01:54:57;5.2;42.8
69634;DHT22;56860;51.144;16.954;2024-03-06T01:55:57;5.2;42.7
69634;DHT22;56860;51.144;16.954;2024-03-06T01:56:57;5.2;42.6
69634;DHT22;56860;51.144;16.954;2024-03-06T01:57:57;unavailable;unavailable
69634;DHT22;56860;51.144;16.954;2024-03-06T01:58:57;5.1;42.5
69634;DHT22;56860;51.144;16.954;2024-03-06T01:59:57;5.0;42.8
69634;DHT22;56860;51.144;16.954;2024-03-06T02:00:57;5.0;43.3
69634;DHT22;56860;51.144;16.954;2024-03-06T02:01:57;5.0;43.4
69634;DHT22;56860;51.144;16.954;2024-03-06T02:02:57;5.0;43.3
69634;DHT22;56860;51.144;16.954;2024-03-06T02:03:57;5.0;43.3
69634;DHT22;56860;51.144;16.954;2024-03-06T02:04:57;5.0;43.3
69634;DHT22;56860;51.144;16.954;2024-03-06T02:05:57;4.9;43.4
69634;DHT22;56860;51.144;16.954;2024-03-06T02:06:57;4.9;43.5
69634;DHT22;56860;51.144;16.954;2024-03-06T02:07:57;4.9;43.5
69634;DHT22;56860;51.144;16.954;2024-03-06T02:08:57;4.9;43.5
69634;DHT22;56860;51.144;16.954;2024-03-06T02:09:57;4.9;43.5
69634;DHT22;56860;51.144;16.954;2024-03-06T02:10:57;unavailable;unavailable
69634;DHT22;56860;51.144;16.954;2024-03-06T02:11:57;5.0;43.0
69634;DHT22;56860;51.144;16.954;2024-03-06T02:12:57;5.0;42.9
69634;DHT22;56860;51.144;16.954;2024-03-06T02:13:57;5.0;42.8
69634;DHT22;56860;51.144;16.954;2024-03-06T02:14:57;5.0;42.8
69634;DHT22;56860;51.144;16.954;2024-03-06T02:15:57;5.0;42.8
69634;DHT22;56860;51.144;16.954;2024-03-06T02:16:57;5.0;42.8
69634;DHT22;56860;51.144;16.954;2024-03-06T02:17:57;4.9;42.9
69634;DHT22;56860;51.144;16.954;2024-03-06T02:18:57;4.8;42.9
69634;DHT22;56860;51.144;16.954;2024-03-06T02:19:57;4.8;43.2
69634;DHT22;56860;51.144;16.954;2024-03-06T02:20:57;4.7;43.3
69634;DHT22;56860;51.144;16.954;2024-03-06T02:21:57;4.6;43.7
69634;DHT22;56860;51.144;16.954;2024-03-06T02:22:57;4.6;43.9
69634;DHT22;56860;51.144;16.954;2024-03-06T02:23:57;unavailable;unavailable
69634;DHT22;56860;51.144;16.954;2024-03-06T02:24:57;4.6;44.2
69634;DHT22;56860;51.144;16.954;2024-03-06T02:25:57;4.6;44.3
69634;DHT22;56860;51.144;16.954;2024-03-06T02:26:57;4.6;44.2
69634;DHT22;56860;51.144;16.954;2024-03-06T02:27:57;4.6;44.1
69634;DHT22;56860;51.144;16.954;2024-03-06T02:28:57;4.6;43.9
69634;DHT22;56860;51.144;16.954;2024-03-06T02:29:57;4.6;43.8
69634;DHT22;56860;51.144;16.954;2024-03-06T02:30:57;4.6;44.0
69634;DHT22;56860;51.144;16.954;2024-03-06T02:31:57;4.6;43.9
69634;DHT22;56860;51.144;16.954;2024-03-06T02:32:57;4.6;43.8
69634;DHT22;56860;51.144;16.954;2024-03-06T02:35:57;4.6;43.9
69634;DHT22;56860;51.144;16.954;2024-03-06T02:36:05;unavailable;unavailable
69634;DHT22;56860;51.144;16.954;2024-03-06T02:36:57;4.5;44.0
69634;DHT22;56860;51.144;16.954;2024-03-06T02:37:57;4.5;43.9
69634;DHT22;56860;51.144;16.954;2024-03-06T02:38:58;unavailable;unavailable
69634;DHT22;56860;51.144;16.954;2024-03-06T02:39:57;4.5;43.8
69634;DHT22;56860;51.144;16.954;2024-03-06T02:40:57;4.4;43.8
69634;DHT22;56860;51.144;16.954;2024-03-06T02:41:57;4.4;43.9
69634;DHT22;56860;51.144;16.954;2024-03-06T02:42:57;4.4;44.0
69634;DHT22;56860;51.144;16.954;2024-03-06T02:43:57;4.3;44.1
69634;DHT22;56860;51.144;16.954;2024-03-06T02:44:57;4.3;43.7
69634;DHT22;56860;51.144;16.954;2024-03-06T02:45:57;4.2;44.2
69634;DHT22;56860;51.144;16.954;2024-03-06T02:46:57;4.2;44.3
69634;DHT22;56860;51.144;16.954;2024-03-06T02:47:57;4.1;44.3
69634;DHT22;56860;51.144;16.954;2024-03-06T02:48:57;4.1;44.5
69634;DHT22;56860;51.144;16.954;2024-03-06T02:49:57;4.1;44.5
69634;DHT22;56860;51.144;16.954;2024-03-06T02:50:57;4.1;44.8
69634;DHT22;56860;51.144;16.954;2024-03-06T02:51:57;4.0;44.9
69634;DHT22;56860;51.144;16.954;2024-03-06T02:52:57;4.0;44.8
69634;DHT22;56860;51.144;16.954;2024-03-06T02:53:57;4.0;45.1
69634;DHT22;56860;51.144;16.954;2024-03-06T02:54:57;4.0;45.1
69634;DHT22;56860;51.144;16.954;2024-03-06T02:55:57;3.9;45.2
69634;DHT22;56860;51.144;16.954;2024-03-06T02:56:57;3.9;45.3
69634;DHT22;56860;51.144;16.954;2024-03-06T02:57:57;3.9;45.3
69634;DHT22;56860;51.144;16.954;2024-03-06T02:58:57;3.8;45.6
69634;DHT22;56860;51.144;16.954;2024-03-06T02:59:57;unavailable;unavailable
69634;DHT22;56860;51.144;16.954;2024-03-06T03:00:57;3.6;45.8
69634;DHT22;56860;51.144;16.954;2024-03-06T03:01:57;3.6;46.0
69634;DHT22;56860;51.144;16.954;2024-03-06T03:02:57;3.5;46.2
69634;DHT22;56860;51.144;16.954;2024-03-06T03:03:57;3.5;46.2
69634;DHT22;56860;51.144;16.954;2024-03-06T03:04:57;unavailable;unavailable
69634;DHT22;56860;51.144;16.954;2024-03-06T03:05:57;3.5;46.3
69634;DHT22;56860;51.144;16.954;2024-03-06T03:06:57;3.4;46.4
69634;DHT22;56860;51.144;16.954;2024-03-06T03:07:57;3.4;46.5
69634;DHT22;56860;51.144;16.954;2024-03-06T03:08:57;3.4;46.6
69634;DHT22;56860;51.144;16.954;2024-03-06T03:09:57;3.4;46.4
69634;DHT22;56860;51.144;16.954;2024-03-06T03:10:58;3.5;46.2
69634;DHT22;56860;51.144;16.954;2024-03-06T03:11:57;3.4;46.1
69634;DHT22;56860;51.144;16.954;2024-03-06T03:12:57;3.4;46.1
69634;DHT22;56860;51.144;16.954;2024-03-06T03:13:57;3.4;46.1
69634;DHT22;56860;51.144;16.954;2024-03-06T03:14:57;3.4;46.1
69634;DHT22;56860;51.144;16.954;2024-03-06T03:15:57;3.4;46.1
69634;DHT22;56860;51.144;16.954;2024-03-06T03:16:57;3.3;45.6
69634;DHT22;56860;51.144;16.954;2024-03-06T03:17:57;3.3;45.9
69634;DHT22;56860;51.144;16.954;2024-03-06T03:18:57;3.3;46.0
69634;DHT22;56860;51.144;16.954;2024-03-06T03:19:57;3.2;45.9
69634;DHT22;56860;51.144;16.954;2024-03-06T03:20:57;3.2;46.0
69634;DHT22;56860;51.144;16.954;2024-03-06T03:21:57;3.2;46.1
69634;DHT22;56860;51.144;16.954;2024-03-06T03:22:57;3.1;46.2
69634;DHT22;56860;51.144;16.954;2024-03-06T03:23:57;3.0;46.4
69634;DHT22;56860;51.144;16.954;2024-03-06T03:24:57;3.1;46.7
69634;DHT22;56860;51.144;16.954;2024-03-06T03:25:57;unavailable;unavailable
69634;DHT22;56860;51.144;16.954;2024-03-06T03:26:57;3.0;46.9
69634;DHT22;56860;51.144;16.954;2024-03-06T03:27:57;3.0;47.0
69634;DHT22;56860;51.144;16.954;2024-03-06T03:28:57;3.0;46.9
69634;DHT22;56860;51.144;16.954;2024-03-06T03:29:57;2.9;46.9
69634;DHT22;56860;51.144;16.954;2024-03-06T03:30:57;unavailable;unavailable
69634;DHT22;56860;51.144;16.954;2024-03-06T03:31:58;2.9;47.1
69634;DHT22;56860;51.144;16.954;2024-03-06T03:32:57;2.9;47.2
69634;DHT22;56860;51.144;16.954;2024-03-06T03:33:57;2.8;47.4
69634;DHT22;56860;51.144;16.954;2024-03-06T03:34:57;2.6;47.7
69634;DHT22;56860;51.144;16.954;2024-03-06T03:35:57;2.5;48.0
69634;DHT22;56860;51.144;16.954;2024-03-06T03:36:57;2.6;48.2
69634;DHT22;56860;51.144;16.954;2024-03-06T03:37:57;2.5;48.4
69634;DHT22;56860;51.144;16.954;2024-03-06T03:38:57;2.4;48.5
69634;DHT22;56860;51.144;16.954;2024-03-06T03:39:57;2.5;48.2
69634;DHT22;56860;51.144;16.954;2024-03-06T03:40:57;2.5;48.8
69634;DHT22;56860;51.144;16.954;2024-03-06T03:41:57;2.5;48.8
69634;DHT22;56860;51.144;16.954;2024-03-06T03:42:57;2.5;48.7
69634;DHT22;56860;51.144;16.954;2024-03-06T03:43:57;2.5;48.6
69634;DHT22;56860;51.144;16.954;2024-03-06T03:44:57;2.5;48.5
69634;DHT22;56860;51.144;16.954;2024-03-06T03:45:57;2.5;48.5
69634;DHT22;56860;51.144;16.954;2024-03-06T03:46:57;unavailable;unavailable
69634;DHT22;56860;51.144;16.954;2024-03-06T03:47:57;2.4;47.8
69634;DHT22;56860;51.144;16.954;2024-03-06T03:48:57;2.3;48.2
69634;DHT22;56860;51.144;16.954;2024-03-06T03:49:57;2.2;48.6
69634;DHT22;56860;51.144;16.954;2024-03-06T03:50:57;2.2;48.0
69634;DHT22;56860;51.144;16.954;2024-03-06T03:51:57;unavailable;unavailable
69634;DHT22;56860;51.144;16.954;2024-03-06T03:52:58;2.2;48.7
69634;DHT22;56860;51.144;16.954;2024-03-06T03:53:57;2.2;48.9
69634;DHT22;56860;51.144;16.954;2024-03-06T03:54:57;2.2;49.0
69634;DHT22;56860;51.144;16.954;2024-03-06T03:55:57;2.2;49.1
69634;DHT22;56860;51.144;16.954;2024-03-06T03:56:57;2.1;49.2
69634;DHT22;56860;51.144;16.954;2024-03-06T03:57:57;2.1;49.2
69634;DHT22;56860;51.144;16.954;2024-03-06T03:58:57;unavailable;unavailable
69634;DHT22;56860;51.144;16.954;2024-03-06T03:59:57;2.1;48.7
69634;DHT22;56860;51.144;16.954;2024-03-06T04:00:57;2.1;48.9
69634;DHT22;56860;51.144;16.954;2024-03-06T04:01:57;2.2;48.8
69634;DHT22;56860;51.144;16.954;2024-03-06T04:02:57;2.2;48.7
69634;DHT22;56860;51.144;16.954;2024-03-06T04:03:57;unavailable;unavailable
69634;DHT22;56860;51.144;16.954;2024-03-06T04:04:57;2.2;48.5
69634;DHT22;56860;51.144;16.954;2024-03-06T04:05:57;2.3;48.5
69634;DHT22;56860;51.144;16.954;2024-03-06T04:06:57;2.3;48.4
69634;DHT22;56860;51.144;16.954;2024-03-06T04:07:57;2.3;48.3
69634;DHT22;56860;51.144;16.954;2024-03-06T04:08:57;2.3;48.3
69634;DHT22;56860;51.144;16.954;2024-03-06T04:09:57;2.3;48.2
69634;DHT22;56860;51.144;16.954;2024-03-06T04:10:57;2.3;48.2
69634;DHT22;56860;51.144;16.954;2024-03-06T04:11:57;2.3;48.2
69634;DHT22;56860;51.144;16.954;2024-03-06T04:12:57;2.3;48.2
69634;DHT22;56860;51.144;16.954;2024-03-06T04:13:57;2.3;48.1
69634;DHT22;56860;51.144;16.954;2024-03-06T04:14:57;2.3;48.2
69634;DHT22;56860;51.144;16.954;2024-03-06T04:15:57;2.3;48.1
69634;DHT22;56860;51.144;16.954;2024-03-06T04:16:57;2.3;48.0
69634;DHT22;56860;51.144;16.954;2024-03-06T04:17:57;2.3;47.8
69634;DHT22;56860;51.144;16.954;2024-03-06T04:18:57;2.3;47.7
69634;DHT22;56860;51.144;16.954;2024-03-06T04:19:57;2.3;47.6
69634;DHT22;56860;51.144;16.954;2024-03-06T04:20:57;2.3;47.6
69634;DHT22;56860;51.144;16.954;2024-03-06T04:21:57;2.3;47.5
69634;DHT22;56860;51.144;16.954;2024-03-06T04:22:57;2.3;47.4
69634;DHT22;56860;51.144;16.954;2024-03-06T04:23:57;2.3;47.3
69634;DHT22;56860;51.144;16.954;2024-03-06T04:24:58;2.3;47.2
69634;DHT22;56860;51.144;16.954;2024-03-06T04:25:57;2.3;46.7
69634;DHT22;56860;51.144;16.954;2024-03-06T04:26:57;2.2;47.3
69634;DHT22;56860;51.144;16.954;2024-03-06T04:27:57;2.2;47.3
69634;DHT22;56860;51.144;16.954;2024-03-06T04:28:57;2.2;47.3
69634;DHT22;56860;51.144;16.954;2024-03-06T04:29:57;2.2;47.4
69634;DHT22;56860;51.144;16.954;2024-03-06T04:30:57;2.2;47.5
69634;DHT22;56860;51.144;16.954;2024-03-06T04:31:57;2.2;47.3
69634;DHT22;56860;51.144;16.954;2024-03-06T04:32:57;2.1;47.2
69634;DHT22;56860;51.144;16.954;2024-03-06T04:33:57;2.1;47.3
69634;DHT22;56860;51.144;16.954;2024-03-06T04:34:57;unavailable;unavailable
69634;DHT22;56860;51.144;16.954;2024-03-06T04:35:57;2.0;46.8
69634;DHT22;56860;51.144;16.954;2024-03-06T04:36:57;2.0;47.1
69634;DHT22;56860;51.144;16.954;2024-03-06T04:37:57;1.9;47.5
69634;DHT22;56860;51.144;16.954;2024-03-06T04:38:57;1.9;47.6
69634;DHT22;56860;51.144;16.954;2024-03-06T04:39:57;unavailable;unavailable
69634;DHT22;56860;51.144;16.954;2024-03-06T04:40:57;1.8;48.2
69634;DHT22;56860;51.144;16.954;2024-03-06T04:41:57;1.7;48.0
69634;DHT22;56860;51.144;16.954;2024-03-06T04:42:57;1.8;48.3
69634;DHT22;56860;51.144;16.954;2024-03-06T04:43:57;1.8;48.2
69634;DHT22;56860;51.144;16.954;2024-03-06T04:44:57;1.7;48.5
69634;DHT22;56860;51.144;16.954;2024-03-06T04:45:57;1.7;48.6
69634;DHT22;56860;51.144;16.954;2024-03-06T04:46:57;1.6;48.6
69634;DHT22;56860;51.144;16.954;2024-03-06T04:47:57;1.7;48.6
69634;DHT22;56860;51.144;16.954;2024-03-06T04:48:57;1.6;48.7
69634;DHT22;56860;51.144;16.954;2024-03-06T04:49:57;1.7;48.5
69634;DHT22;56860;51.144;16.954;2024-03-06T04:50:57;1.7;48.1
69634;DHT22;56860;51.144;16.954;2024-03-06T04:51:57;unavailable;unavailable
69634;DHT22;56860;51.144;16.954;2024-03-06T04:52:57;1.7;48.5
69634;DHT22;56860;51.144;16.954;2024-03-06T04:53:57;1.7;48.5
69634;DHT22;56860;51.144;16.954;2024-03-06T04:54:57;1.8;48.2
69634;DHT22;56860;51.144;16.954;2024-03-06T04:55:57;1.8;48.0
69634;DHT22;56860;51.144;16.954;2024-03-06T04:56:58;1.8;47.5
69634;DHT22;56860;51.144;16.954;2024-03-06T04:57:57;1.9;47.3
69634;DHT22;56860;51.144;16.954;2024-03-06T04:58:57;1.9;47.0
69634;DHT22;56860;51.144;16.954;2024-03-06T04:59:57;1.9;47.0
69634;DHT22;56860;51.144;16.954;2024-03-06T05:00:57;unavailable;unavailable
69634;DHT22;56860;51.144;16.954;2024-03-06T05:01:57;1.9;46.4
69634;DHT22;56860;51.144;16.954;2024-03-06T05:02:57;1.9;46.4
69634;DHT22;56860;51.144;16.954;2024-03-06T05:03:57;1.9;46.6
69634;DHT22;56860;51.144;16.954;2024-03-06T05:04:57;1.9;46.6
69634;DHT22;56860;51.144;16.954;2024-03-06T05:05:57;1.8;46.5
69634;DHT22;56860;51.144;16.954;2024-03-06T05:06:57;1.8;46.6
69634;DHT22;56860;51.144;16.954;2024-03-06T05:07:58;1.7;46.8
69634;DHT22;56860;51.144;16.954;2024-03-06T05:08:57;1.6;47.1
69634;DHT22;56860;51.144;16.954;2024-03-06T05:09:57;1.5;47.5
69634;DHT22;56860;51.144;16.954;2024-03-06T05:10:59;unavailable;unavailable
69634;DHT22;56860;51.144;16.954;2024-03-06T05:11:57;unavailable;unavailable
69634;DHT22;56860;51.144;16.954;2024-03-06T05:12:57;unavailable;unavailable
69634;DHT22;56860;51.144;16.954;2024-03-06T05:13:57;unavailable;unavailable
69634;DHT22;56860;51.144;16.954;2024-03-06T05:14:57;1.2;48.4
69634;DHT22;56860;51.144;16.954;2024-03-06T05:15:57;1.1;48.4
69634;DHT22;56860;51.144;16.954;2024-03-06T05:16:57;1.1;48.8
69634;DHT22;56860;51.144;16.954;2024-03-06T05:17:57;1.1;49.0
69634;DHT22;56860;51.144;16.954;2024-03-06T05:18:58;1.1;49.3
69634;DHT22;56860;51.144;16.954;2024-03-06T05:19:57;1.1;49.6
69634;DHT22;56860;51.144;16.954;2024-03-06T05:20:57;1.1;49.8
69634;DHT22;56860;51.144;16.954;2024-03-06T05:21:57;unavailable;unavailable
69634;DHT22;56860;51.144;16.954;2024-03-06T05:22:57;unavailable;unavailable
69634;DHT22;56860;51.144;16.954;2024-03-06T05:23:57;unavailable;unavailable
69634;DHT22;56860;51.144;16.954;2024-03-06T05:24:57;unavailable;unavailable
69634;DHT22;56860;51.144;16.954;2024-03-06T05:25:57;1.1;49.8
69634;DHT22;56860;51.144;16.954;2024-03-06T05:26:57;1.1;49.8
69634;DHT22;56860;51.144;16.954;2024-03-06T05:27:57;1.1;49.4
69634;DHT22;56860;51.144;16.954;2024-03-06T05:28:57;1.1;49.8
69634;DHT22;56860;51.144;16.954;2024-03-06T05:29:57;1.1;49.8
69634;DHT22;56860;51.144;16.954;2024-03-06T05:30:57;1.1;49.9
69634;DHT22;56860;51.144;16.954;2024-03-06T05:31:57;1.1;50.0
69634;DHT22;56860;51.144;16.954;2024-03-06T05:32:57;unavailable;unavailable
69634;DHT22;56860;51.144;16.954;2024-03-06T05:33:57;unavailable;unavailable
69634;DHT22;56860;51.144;16.954;2024-03-06T05:34:57;unavailable;unavailable
69634;DHT22;56860;51.144;16.954;2024-03-06T05:35:57;unavailable;unavailable
69634;DHT22;56860;51.144;16.954;2024-03-06T05:36:57;1.2;49.8
69634;DHT22;56860;51.144;16.954;2024-03-06T05:37:57;1.2;49.7
69634;DHT22;56860;51.144;16.954;2024-03-06T05:38:57;1.2;49.7
69634;DHT22;56860;51.144;16.954;2024-03-06T05:39:57;1.2;49.6
69634;DHT22;56860;51.144;16.954;2024-03-06T05:40:57;1.2;49.7
69634;DHT22;56860;51.144;16.954;2024-03-06T05:41:59;1.1;49.9
69634;DHT22;56860;51.144;16.954;2024-03-06T05:42:57;unavailable;unavailable
69634;DHT22;56860;51.144;16.954;2024-03-06T05:43:57;unavailable;unavailable
69634;DHT22;56860;51.144;16.954;2024-03-06T05:44:57;unavailable;unavailable
69634;DHT22;56860;51.144;16.954;2024-03-06T05:45:57;unavailable;unavailable
69634;DHT22;56860;51.144;16.954;2024-03-06T05:46:57;1.2;50.1
69634;DHT22;56860;51.144;16.954;2024-03-06T05:47:57;1.2;50.0
69634;DHT22;56860;51.144;16.954;2024-03-06T05:48:57;1.2;49.5
69634;DHT22;56860;51.144;16.954;2024-03-06T05:49:57;1.3;49.8
69634;DHT22;56860;51.144;16.954;2024-03-06T05:50:57;1.3;49.9
69634;DHT22;56860;51.144;16.954;2024-03-06T05:51:57;1.3;49.9
69634;DHT22;56860;51.144;16.954;2024-03-06T05:52:57;1.3;50.0
69634;DHT22;56860;51.144;16.954;2024-03-06T05:53:57;1.4;50.0
69634;DHT22;56860;51.144;16.954;2024-03-06T05:54:57;unavailable;unavailable
69634;DHT22;56860;51.144;16.954;2024-03-06T05:55:57;unavailable;unavailable
69634;DHT22;56860;51.144;16.954;2024-03-06T05:56:57;unavailable;unavailable
69634;DHT22;56860;51.144;16.954;2024-03-06T05:57:57;1.6;50.7
69634;DHT22;56860;51.144;16.954;2024-03-06T05:58:57;1.7;50.4
69634;DHT22;56860;51.144;16.954;2024-03-06T05:59:57;1.8;50.0
69634;DHT22;56860;51.144;16.954;2024-03-06T06:00:57;unavailable;unavailable
69634;DHT22;56860;51.144;16.954;2024-03-06T06:01:57;1.9;49.6
69634;DHT22;56860;51.144;16.954;2024-03-06T06:02:57;1.9;49.5
69634;DHT22;56860;51.144;16.954;2024-03-06T06:03:57;2.0;49.4
69634;DHT22;56860;51.144;16.954;2024-03-06T06:04:57;2.0;49.3
69634;DHT22;56860;51.144;16.954;2024-03-06T06:05:57;2.1;49.3
69634;DHT22;56860;51.144;16.954;2024-03-06T06:06:57;2.2;49.2
69634;DHT22;56860;51.144;16.954;2024-03-06T06:07:57;unavailable;unavailable
69634;DHT22;56860;51.144;16.954;2024-03-06T06:08:57;2.3;48.9
69634;DHT22;56860;51.144;16.954;2024-03-06T06:09:57;2.4;48.5
69634;DHT22;56860;51.144;16.954;2024-03-06T06:10:57;2.4;48.1
69634;DHT22;56860;51.144;16.954;2024-03-06T06:11:57;2.4;48.1
69634;DHT22;56860;51.144;16.954;2024-03-06T06:12:57;2.5;48.1
69634;DHT22;56860;51.144;16.954;2024-03-06T06:13:57;2.5;48.0
69634;DHT22;56860;51.144;16.954;2024-03-06T06:14:57;2.6;48.1
69634;DHT22;56860;51.144;16.954;2024-03-06T06:15:57;2.6;48.0
69634;DHT22;56860;51.144;16.954;2024-03-06T06:16:57;2.6;48.3
69634;DHT22;56860;51.144;16.954;2024-03-06T06:17:57;2.7;48.3
69634;DHT22;56860;51.144;16.954;2024-03-06T06:18:57;2.8;48.2
69634;DHT22;56860;51.144;16.954;2024-03-06T06:19:57;2.8;47.6
69634;DHT22;56860;51.144;16.954;2024-03-06T06:20:57;2.9;47.6